Weather at Narita International Airport

Public forecast

Using degrees Celsius for public forecast. Weather courtesy of forecast.io.

Current aviation weather report (METAR) for Narita International Airport

Retrieved 2020/10/20 16:30 UTC (9 minutes ago):

RJAA 201630Z 01008KT 9999 FEW030 12/11 Q1025 NOSIG RMK 1CU030 A3028

Aviation forecast (TAF) for Narita International Airport

Retrieved 2020/10/20 12:09 UTC (4 hours ago):

TAF TAF RJAA 201105Z 2012/2118 36005KT 9999 FEW030